createdAt,value
2016-05-08T00:00:52.744Z,996.34
2016-05-08T00:01:52.731Z,996.35
2016-05-08T00:02:52.749Z,996.35
2016-05-08T00:03:52.752Z,996.33
2016-05-08T00:04:52.755Z,996.36
2016-05-08T00:05:52.773Z,996.41
2016-05-08T00:06:52.776Z,996.37
2016-05-08T00:07:52.763Z,996.37
2016-05-08T00:08:52.781Z,996.35
2016-05-08T00:09:52.784Z,996.33
2016-05-08T00:10:52.787Z,996.34
2016-05-08T00:11:52.804Z,996.37
2016-05-08T00:12:52.807Z,996.33
2016-05-08T00:13:52.826Z,996.33
2016-05-08T00:14:52.812Z,996.29
2016-05-08T00:15:52.831Z,996.32
2016-05-08T00:16:52.850Z,996.29
2016-05-08T00:17:52.821Z,996.26
2016-05-08T00:18:52.839Z,996.28
2016-05-08T00:19:53.045Z,996.21
2016-05-08T00:20:52.860Z,996.22
2016-05-08T00:21:52.847Z,996.21
2016-05-08T00:22:52.867Z,996.22
2016-05-08T00:23:53.072Z,996.2
2016-05-08T00:24:52.879Z,996.22
2016-05-08T00:25:52.865Z,996.21
2016-05-08T00:26:52.899Z,996.2
2016-05-08T00:27:52.870Z,996.19
2016-05-08T00:28:52.921Z,996.16
2016-05-08T00:29:52.892Z,996.19
2016-05-08T00:30:52.895Z,996.18
2016-05-08T00:31:52.913Z,996.17
2016-05-08T00:32:52.915Z,996.12
2016-05-08T00:33:52.917Z,996.18
2016-05-08T00:34:52.920Z,996.15
2016-05-08T00:35:52.954Z,996.1
2016-05-08T00:36:52.926Z,996.14
2016-05-08T00:37:52.929Z,996.15
2016-05-08T00:38:52.947Z,996.12
2016-05-08T00:39:52.950Z,996.1
2016-05-08T00:40:52.952Z,996.14
2016-05-08T00:41:52.970Z,996.11
2016-05-08T00:42:52.973Z,996.12
2016-05-08T00:43:53.195Z,996.12
2016-05-08T00:44:52.994Z,996.13
2016-05-08T00:45:52.981Z,996.18
2016-05-08T00:46:52.984Z,996.16
2016-05-08T00:47:53.019Z,996.14
2016-05-08T00:48:52.989Z,996.2
2016-05-08T00:49:52.992Z,996.19
2016-05-08T00:50:53.010Z,996.24
2016-05-08T00:51:53.013Z,996.21
2016-05-08T00:52:53.015Z,996.2
2016-05-08T00:53:53.035Z,996.22
2016-05-08T00:54:53.037Z,996.24
2016-05-08T00:55:53.040Z,996.27
2016-05-08T00:56:53.260Z,996.25
2016-05-08T00:57:53.045Z,996.26
2016-05-08T00:58:53.062Z,996.29
2016-05-08T00:59:53.098Z,996.29
2016-05-08T01:00:53.069Z,996.28
2016-05-08T01:01:53.071Z,996.34
2016-05-08T01:02:53.073Z,996.33
2016-05-08T01:03:53.093Z,996.29
2016-05-08T01:04:53.079Z,996.33
2016-05-08T01:05:53.114Z,996.31
2016-05-08T01:06:53.085Z,996.33
2016-05-08T01:07:53.087Z,996.37
2016-05-08T01:08:53.105Z,996.35
2016-05-08T01:09:53.139Z,996.42
2016-05-08T01:10:53.142Z,996.43
2016-05-08T01:11:53.114Z,996.45
2016-05-08T01:13:12.320Z,996.41
2016-05-08T01:13:53.119Z,996.41
2016-05-08T01:14:53.138Z,996.41
2016-05-08T01:15:53.344Z,996.43
2016-05-08T01:16:53.144Z,996.41
2016-05-08T01:17:53.364Z,996.4
2016-05-08T01:18:53.149Z,996.44
2016-05-08T01:19:53.151Z,996.36
2016-05-08T01:20:53.154Z,996.36
2016-05-08T01:21:53.172Z,996.41
2016-05-08T01:22:53.175Z,996.39
2016-05-08T01:23:53.177Z,996.38
2016-05-08T01:24:53.181Z,996.37
2016-05-08T01:25:53.199Z,996.36
2016-05-08T01:26:53.217Z,996.36
2016-05-08T01:27:53.204Z,996.35
2016-05-08T01:28:53.192Z,996.33
2016-05-08T01:29:53.210Z,996.37
2016-05-08T01:30:53.213Z,996.36
2016-05-08T01:31:53.215Z,996.38
2016-05-08T01:32:53.234Z,996.38
2016-05-08T01:33:53.236Z,996.38
2016-05-08T01:34:53.224Z,996.42
2016-05-08T01:35:53.460Z,996.42
2016-05-08T01:36:53.276Z,996.45
2016-05-08T01:37:53.246Z,996.47
2016-05-08T01:38:53.250Z,996.51
2016-05-08T01:39:53.252Z,996.49
2016-05-08T01:40:53.255Z,996.52
2016-05-08T01:41:53.257Z,996.49
2016-05-08T01:42:53.276Z,996.52
2016-05-08T01:43:53.263Z,996.49
2016-05-08T01:44:53.282Z,996.51
2016-05-08T01:45:53.284Z,996.51
2016-05-08T01:46:53.303Z,996.49
2016-05-08T01:47:53.306Z,996.49
2016-05-08T01:48:53.323Z,996.44
2016-05-08T01:49:53.311Z,996.45
2016-05-08T01:51:53.300Z,996.44
2016-05-08T01:52:53.522Z,996.42
2016-05-08T01:53:53.322Z,996.4
2016-05-08T01:54:53.325Z,996.36
2016-05-08T01:55:53.327Z,996.37
2016-05-08T01:56:53.330Z,996.37
2016-05-08T01:57:53.472Z,996.39
2016-05-08T01:58:53.335Z,996.41
2016-05-08T01:59:53.338Z,996.42
2016-05-08T02:00:53.341Z,996.37
2016-05-08T02:01:53.344Z,996.4
2016-05-08T02:02:53.361Z,996.39
2016-05-08T02:03:53.363Z,996.4
2016-05-08T02:04:53.366Z,996.4
2016-05-08T02:05:53.369Z,996.39
2016-05-08T02:06:53.372Z,996.39
2016-05-08T02:07:53.391Z,996.38
2016-05-08T02:08:53.580Z,996.39
2016-05-08T02:09:53.379Z,996.37
2016-05-08T02:10:53.383Z,996.4
2016-05-08T02:11:53.402Z,996.4
2016-05-08T02:12:53.404Z,996.38
2016-05-08T02:13:53.407Z,996.4
2016-05-08T02:14:53.409Z,996.37
2016-05-08T02:15:53.412Z,996.43
2016-05-08T02:16:53.414Z,996.43
2016-05-08T02:17:53.637Z,996.43
2016-05-08T02:18:53.451Z,996.4
2016-05-08T02:19:53.454Z,996.4
2016-05-08T02:20:53.425Z,996.4
2016-05-08T02:21:53.428Z,996.41
2016-05-08T02:22:53.462Z,996.38
2016-05-08T02:23:53.450Z,996.35
2016-05-08T02:24:53.467Z,996.31
2016-05-08T02:25:53.455Z,996.34
2016-05-08T02:26:53.472Z,996.33
2016-05-08T02:27:53.475Z,996.33
2016-05-08T02:28:53.463Z,996.3
2016-05-08T02:29:53.497Z,996.32
2016-05-08T02:30:53.468Z,996.31
2016-05-08T02:31:53.471Z,996.35
2016-05-08T02:32:53.677Z,996.33
2016-05-08T02:33:53.491Z,996.35
2016-05-08T02:34:53.494Z,996.32
2016-05-08T02:35:53.497Z,996.34
2016-05-08T02:36:53.530Z,996.37
2016-05-08T02:37:53.518Z,996.38
2016-05-08T02:38:53.505Z,996.35
2016-05-08T02:39:53.507Z,996.35
2016-05-08T02:40:53.510Z,996.37
2016-05-08T02:41:53.562Z,996.38
2016-05-08T02:42:53.611Z,996.37
2016-05-08T02:43:53.661Z,996.42
2016-05-08T02:44:53.946Z,996.41
2016-05-08T02:45:53.762Z,996.42
2016-05-08T02:46:53.792Z,996.4
2016-05-08T02:47:53.813Z,996.4
2016-05-08T02:48:53.832Z,996.41
2016-05-08T02:49:53.852Z,996.37
2016-05-08T02:50:53.872Z,996.36
2016-05-08T02:51:53.899Z,996.38
2016-05-08T02:52:53.908Z,996.39
2016-05-08T02:54:53.911Z,996.43
2016-05-08T02:55:53.934Z,996.45
2016-05-08T02:56:53.941Z,996.45
2016-05-08T02:57:53.946Z,996.41
2016-05-08T02:58:53.951Z,996.46
2016-05-08T02:59:53.956Z,996.49
2016-05-08T03:00:53.977Z,996.46
2016-05-08T03:01:53.965Z,996.44
2016-05-08T03:02:53.984Z,996.47
2016-05-08T03:03:53.971Z,996.45
2016-05-08T03:04:53.975Z,996.45
2016-05-08T03:05:53.995Z,996.41
2016-05-08T03:06:54.232Z,996.46
2016-05-08T03:07:54.001Z,996.43
2016-05-08T03:08:54.004Z,996.41
2016-05-08T03:09:54.007Z,996.44
2016-05-08T03:10:54.010Z,996.39
2016-05-08T03:11:54.013Z,996.44
2016-05-08T03:12:54.016Z,996.45
2016-05-08T03:13:54.221Z,996.47
2016-05-08T03:14:54.052Z,996.44
2016-05-08T03:15:54.039Z,996.42
2016-05-08T03:16:54.043Z,996.46
2016-05-08T03:17:54.045Z,996.42
2016-05-08T03:18:54.048Z,996.47
2016-05-08T03:19:54.050Z,996.48
2016-05-08T03:20:54.054Z,996.55
2016-05-08T03:21:54.071Z,996.48
2016-05-08T03:22:54.059Z,996.49
2016-05-08T03:23:54.076Z,996.49
2016-05-08T03:24:54.079Z,996.51
2016-05-08T03:26:54.101Z,996.53
2016-05-08T03:27:54.134Z,996.54
2016-05-08T03:28:54.090Z,996.54
2016-05-08T03:29:54.092Z,996.57
2016-05-08T03:30:54.096Z,996.55
2016-05-08T03:31:54.097Z,996.58
2016-05-08T03:32:54.101Z,996.6
2016-05-08T03:33:54.103Z,996.6
2016-05-08T03:34:54.105Z,996.6
2016-05-08T03:35:54.109Z,996.59
2016-05-08T03:36:54.111Z,996.6
2016-05-08T03:37:54.130Z,996.65
2016-05-08T03:38:54.132Z,996.63
2016-05-08T03:39:54.135Z,996.63
2016-05-08T03:41:54.140Z,996.59
2016-05-08T03:42:54.144Z,996.6
2016-05-08T03:43:54.755Z,996.57
2016-05-08T03:45:54.151Z,996.57
2016-05-08T03:46:54.154Z,996.57
2016-05-08T03:47:54.157Z,996.56
2016-05-08T03:48:54.176Z,996.53
2016-05-08T03:49:54.162Z,996.55
2016-05-08T03:50:54.165Z,996.55
2016-05-08T03:51:54.183Z,996.57
2016-05-08T03:52:54.186Z,996.58
2016-05-08T03:53:54.189Z,996.56
2016-05-08T03:54:54.192Z,996.54
2016-05-08T03:55:54.194Z,996.6
2016-05-08T03:56:54.212Z,996.64
2016-05-08T03:58:54.202Z,996.68
2016-05-08T03:59:54.205Z,996.72
2016-05-08T04:00:54.223Z,996.75
2016-05-08T04:01:54.211Z,996.67
2016-05-08T04:02:54.259Z,996.7
2016-05-08T04:03:54.216Z,996.66
2016-05-08T04:04:54.218Z,996.66
2016-05-08T04:05:54.221Z,996.66
2016-05-08T04:06:54.255Z,996.69
2016-05-08T04:07:54.242Z,996.67
2016-05-08T04:08:54.244Z,996.71
2016-05-08T04:09:54.247Z,996.76
2016-05-08T04:10:54.250Z,996.72
2016-05-08T04:11:54.253Z,996.78
2016-05-08T04:12:54.365Z,996.81
2016-05-08T04:13:54.274Z,996.84
2016-05-08T04:14:54.291Z,996.87
2016-05-08T04:15:54.263Z,996.88
2016-05-08T04:16:54.266Z,996.88
2016-05-08T04:17:54.269Z,996.9
2016-05-08T04:18:54.287Z,996.88
2016-05-08T04:19:58.915Z,996.87
2016-05-08T04:22:54.329Z,996.85
2016-05-08T04:23:54.534Z,996.82
2016-05-08T04:24:54.303Z,996.85
2016-05-08T04:25:54.306Z,996.82
2016-05-08T04:26:54.324Z,996.83
2016-05-08T04:27:54.343Z,996.85
2016-05-08T04:28:54.329Z,996.85
2016-05-08T04:29:54.331Z,996.86
2016-05-08T04:30:54.334Z,996.89
2016-05-08T04:31:54.338Z,996.9
2016-05-08T04:32:54.356Z,996.86
2016-05-08T04:33:54.374Z,996.86
2016-05-08T04:34:54.345Z,996.9
2016-05-08T04:35:54.363Z,996.87
2016-05-08T04:36:54.586Z,996.89
2016-05-08T04:37:54.400Z,996.94
2016-05-08T04:38:54.575Z,996.97
2016-05-08T04:39:54.374Z,997
2016-05-08T04:40:54.378Z,996.99
2016-05-08T04:41:54.380Z,997.01
2016-05-08T04:42:54.585Z,997.04
2016-05-08T04:43:54.588Z,997.05
2016-05-08T04:44:54.405Z,997.05
2016-05-08T04:45:54.406Z,997.05
2016-05-08T04:46:54.410Z,997.02
2016-05-08T04:47:54.412Z,997.07
2016-05-08T04:48:54.414Z,997.1
2016-05-08T04:49:54.417Z,997.08
2016-05-08T04:50:54.436Z,997.05
2016-05-08T04:51:54.438Z,997.05
2016-05-08T04:52:54.441Z,997.04
2016-05-08T04:53:54.459Z,997.04
2016-05-08T04:54:54.446Z,997.01
2016-05-08T04:55:54.667Z,997.03
2016-05-08T04:56:54.468Z,997.04
2016-05-08T04:57:54.470Z,997.02
2016-05-08T04:58:54.503Z,997.05
2016-05-08T04:59:54.491Z,997.08
2016-05-08T05:00:54.697Z,997.1
2016-05-08T05:01:54.481Z,997.11
2016-05-08T05:02:54.515Z,997.13
2016-05-08T05:03:54.517Z,997.15
2016-05-08T05:04:54.520Z,997.22
2016-05-08T05:05:54.522Z,997.14
2016-05-08T05:06:54.510Z,997.18
2016-05-08T05:07:54.544Z,997.11
2016-05-08T05:08:54.750Z,997.12
2016-05-08T05:09:54.533Z,997.11
2016-05-08T05:10:54.536Z,997.13
2016-05-08T05:11:54.555Z,997.09
2016-05-08T05:13:54.779Z,997.15
2016-05-08T05:14:54.547Z,997.2
2016-05-08T05:15:54.549Z,997.22
2016-05-08T05:16:54.568Z,997.2
2016-05-08T05:17:54.571Z,997.24
2016-05-08T05:18:54.573Z,997.24
2016-05-08T05:19:54.576Z,997.26
2016-05-08T05:20:54.579Z,997.26
2016-05-08T05:21:54.597Z,997.23
2016-05-08T05:22:54.599Z,997.26
2016-05-08T05:23:54.602Z,997.24
2016-05-08T05:24:54.605Z,997.24
2016-05-08T05:25:54.608Z,997.28
2016-05-08T05:26:54.626Z,997.28
2016-05-08T05:27:54.629Z,997.3
2016-05-08T05:28:54.631Z,997.33
2016-05-08T05:29:54.853Z,997.3
2016-05-08T05:30:54.637Z,997.32
2016-05-08T05:31:54.656Z,997.35
2016-05-08T05:32:54.673Z,997.37
2016-05-08T05:33:54.661Z,997.4
2016-05-08T05:34:54.664Z,997.42
2016-05-08T05:35:54.667Z,997.41
2016-05-08T05:36:54.669Z,997.42
2016-05-08T05:37:54.686Z,997.42
2016-05-08T05:38:54.689Z,997.42
2016-05-08T05:39:54.895Z,997.46
2016-05-08T05:40:55.102Z,997.43
2016-05-08T05:41:54.714Z,997.44
2016-05-08T05:42:54.716Z,997.45
2016-05-08T05:43:54.718Z,997.44
2016-05-08T05:44:54.737Z,997.44
2016-05-08T05:45:54.725Z,997.4
2016-05-08T05:46:54.743Z,997.42
2016-05-08T05:47:54.746Z,997.43
2016-05-08T05:48:54.748Z,997.45
2016-05-08T05:49:54.954Z,997.4
2016-05-08T05:50:54.768Z,997.44
2016-05-08T05:51:54.772Z,997.42
2016-05-08T05:52:54.774Z,997.36
2016-05-08T05:53:54.777Z,997.44
2016-05-08T05:54:54.779Z,997.42
2016-05-08T05:55:54.798Z,997.42
2016-05-08T05:56:54.800Z,997.45
2016-05-08T05:57:54.803Z,997.46
2016-05-08T05:58:54.806Z,997.48
2016-05-08T05:59:54.824Z,997.5
2016-05-08T06:00:54.826Z,997.41
2016-05-08T06:01:54.829Z,997.44
2016-05-08T06:02:54.848Z,997.43
2016-05-08T06:03:54.835Z,997.43
2016-05-08T06:04:54.838Z,997.43
2016-05-08T06:05:54.856Z,997.42
2016-05-08T06:06:54.858Z,997.44
2016-05-08T06:07:54.861Z,997.43
2016-05-08T06:08:54.880Z,997.48
2016-05-08T06:09:54.882Z,997.48
2016-05-08T06:10:54.901Z,997.49
2016-05-08T06:11:54.903Z,997.46
2016-05-08T06:12:55.109Z,997.5
2016-05-08T06:13:54.925Z,997.47
2016-05-08T06:14:54.911Z,997.5
2016-05-08T06:15:54.914Z,997.5
2016-05-08T06:16:54.932Z,997.51
2016-05-08T06:17:54.966Z,997.53
2016-05-08T06:18:54.954Z,997.57
2016-05-08T06:19:54.941Z,997.58
2016-05-08T06:20:54.959Z,997.49
2016-05-08T06:21:54.962Z,997.51
2016-05-08T06:22:54.964Z,997.48
2016-05-08T06:23:54.982Z,997.49
2016-05-08T06:24:54.985Z,997.49
2016-05-08T06:25:55.003Z,997.49
2016-05-08T06:26:54.991Z,997.49
2016-05-08T06:27:55.009Z,997.47
2016-05-08T06:28:55.012Z,997.44
2016-05-08T06:29:55.029Z,997.46
2016-05-08T06:30:55.251Z,997.44
2016-05-08T06:31:55.035Z,997.43
2016-05-08T06:32:55.037Z,997.43
2016-05-08T06:33:55.056Z,997.42
2016-05-08T06:34:55.059Z,997.45
2016-05-08T06:35:55.078Z,997.47
2016-05-08T06:36:55.080Z,997.47
2016-05-08T06:37:55.067Z,997.48
2016-05-08T06:38:55.085Z,997.45
2016-05-08T06:39:55.088Z,997.46
2016-05-08T06:40:55.122Z,997.44
2016-05-08T06:41:55.109Z,997.46
2016-05-08T06:42:55.112Z,997.44
2016-05-08T06:43:55.114Z,997.47
2016-05-08T06:44:55.367Z,997.47
2016-05-08T06:45:55.136Z,997.47
2016-05-08T06:46:55.169Z,997.45
2016-05-08T06:47:55.157Z,997.47
2016-05-08T06:48:55.191Z,997.42
2016-05-08T06:49:55.177Z,997.48
2016-05-08T06:50:55.180Z,997.45
2016-05-08T06:51:55.168Z,997.43
2016-05-08T06:52:55.389Z,997.44
2016-05-08T06:53:55.188Z,997.4
2016-05-08T06:54:55.207Z,997.43
2016-05-08T06:55:55.209Z,997.46
2016-05-08T06:56:55.212Z,997.44
2016-05-08T06:57:55.511Z,997.46
2016-05-08T06:58:55.232Z,997.44
2016-05-08T06:59:55.235Z,997.46
2016-05-08T07:00:55.254Z,997.48
2016-05-08T07:01:55.257Z,997.43
2016-05-08T07:02:55.259Z,997.49
2016-05-08T07:03:55.278Z,997.46
2016-05-08T07:04:55.281Z,997.53
2016-05-08T07:05:55.283Z,997.48
2016-05-08T07:06:55.301Z,997.48
2016-05-08T07:07:55.303Z,997.5
2016-05-08T07:08:55.306Z,997.52
2016-05-08T07:09:55.325Z,997.48
2016-05-08T07:10:55.327Z,997.54
2016-05-08T07:11:55.330Z,997.49
2016-05-08T07:12:55.349Z,997.54
2016-05-08T07:13:55.352Z,997.5
2016-05-08T07:14:55.370Z,997.5
2016-05-08T07:15:55.372Z,997.46
2016-05-08T07:16:55.391Z,997.49
2016-05-08T07:17:55.627Z,997.43
2016-05-08T07:18:55.411Z,997.47
2016-05-08T07:19:55.618Z,997.5
2016-05-08T07:20:55.416Z,997.48
2016-05-08T07:21:55.436Z,997.51
2016-05-08T07:22:55.438Z,997.5
2016-05-08T07:23:55.441Z,997.49
2016-05-08T07:24:55.460Z,997.45
2016-05-08T07:25:55.477Z,997.42
2016-05-08T07:26:55.465Z,997.46
2016-05-08T07:27:55.780Z,997.43
2016-05-08T07:28:55.485Z,997.47
2016-05-08T07:29:55.503Z,997.46
2016-05-08T07:30:55.507Z,997.41
2016-05-08T07:31:55.509Z,997.46
2016-05-08T07:32:55.559Z,997.42
2016-05-08T07:33:55.531Z,997.47
2016-05-08T07:34:55.751Z,997.4
2016-05-08T07:35:55.786Z,997.39
2016-05-08T07:37:55.573Z,997.44
2016-05-08T07:38:55.575Z,997.45
2016-05-08T07:39:55.592Z,997.43
2016-05-08T07:40:55.612Z,997.4
2016-05-08T07:41:55.614Z,997.41
2016-05-08T07:42:55.820Z,997.42
2016-05-08T07:43:55.650Z,997.42
2016-05-08T07:44:55.638Z,997.46
2016-05-08T07:45:55.641Z,997.46
2016-05-08T07:46:55.675Z,997.42
2016-05-08T07:47:55.677Z,997.37
2016-05-08T07:48:55.695Z,997.38
2016-05-08T07:49:55.682Z,997.4
2016-05-08T07:50:55.701Z,997.39
2016-05-08T07:51:55.704Z,997.41
2016-05-08T07:52:55.738Z,997.41
2016-05-08T07:53:55.927Z,997.43
2016-05-08T07:54:55.743Z,997.41
2016-05-08T07:55:55.777Z,997.46
2016-05-08T07:56:55.748Z,997.41
2016-05-08T07:57:55.938Z,997.37
2016-05-08T07:58:55.769Z,997.36
2016-05-08T07:59:55.787Z,997.31
2016-05-08T08:00:55.806Z,997.32
2016-05-08T08:01:55.809Z,997.31
2016-05-08T08:02:55.811Z,997.3
2016-05-08T08:03:55.829Z,997.33
2016-05-08T08:04:55.864Z,997.33
2016-05-08T08:05:55.851Z,997.32
2016-05-08T08:06:55.853Z,997.34
2016-05-08T08:07:55.872Z,997.29
2016-05-08T08:08:55.875Z,997.29
2016-05-08T08:09:55.892Z,997.28
2016-05-08T08:10:55.895Z,997.3
2016-05-08T08:11:55.945Z,997.31
2016-05-08T08:12:56.244Z,997.37
2016-05-08T08:13:55.950Z,997.37
2016-05-08T08:14:55.937Z,997.34
2016-05-08T08:15:55.956Z,997.34
2016-05-08T08:16:55.974Z,997.37
2016-05-08T08:17:55.977Z,997.3
2016-05-08T08:18:55.980Z,997.32
2016-05-08T08:20:56.000Z,997.35
2016-05-08T08:21:56.019Z,997.32
2016-05-08T08:22:56.037Z,997.34
2016-05-08T08:23:56.055Z,997.35
2016-05-08T08:24:56.058Z,997.35
2016-05-08T08:25:56.076Z,997.36
2016-05-08T08:26:56.079Z,997.35
2016-05-08T08:27:56.082Z,997.37
2016-05-08T08:28:56.085Z,997.37
2016-05-08T08:29:56.102Z,997.39
2016-05-08T08:30:56.137Z,997.32
2016-05-08T08:31:56.124Z,997.38
2016-05-08T08:32:56.345Z,997.36
2016-05-08T08:33:56.145Z,997.32
2016-05-08T08:34:56.147Z,997.34
2016-05-08T08:35:56.165Z,997.34
2016-05-08T08:36:56.184Z,997.34
2016-05-08T08:37:56.187Z,997.42
2016-05-08T08:38:56.236Z,997.37
2016-05-08T08:39:56.208Z,997.38
2016-05-08T08:40:56.226Z,997.31
2016-05-08T08:41:56.245Z,997.29
2016-05-08T08:42:56.247Z,997.3
2016-05-08T08:43:56.264Z,997.3
2016-05-08T08:44:56.267Z,997.34
2016-05-08T08:45:56.286Z,997.32
2016-05-08T08:46:56.305Z,997.35
2016-05-08T08:47:56.307Z,997.29
2016-05-08T08:48:56.310Z,997.27
2016-05-08T08:49:56.328Z,997.3
2016-05-08T08:50:56.347Z,997.28
2016-05-08T08:51:56.365Z,997.28
2016-05-08T08:52:56.352Z,997.3
2016-05-08T08:53:56.370Z,997.34
2016-05-08T08:54:56.388Z,997.35
2016-05-08T08:55:56.391Z,997.34
2016-05-08T08:56:56.409Z,997.36
2016-05-08T08:57:56.413Z,997.39
2016-05-08T08:58:57.524Z,997.36
2016-05-08T08:59:56.433Z,997.34
2016-05-08T09:01:56.485Z,997.3
2016-05-08T09:02:56.473Z,997.28
2016-05-08T09:03:56.490Z,997.22
2016-05-08T09:04:56.509Z,997.24
2016-05-08T09:05:56.512Z,997.23
2016-05-08T09:06:56.514Z,997.24
2016-05-08T09:07:56.549Z,997.24
2016-05-08T09:08:56.551Z,997.27
2016-05-08T09:09:56.553Z,997.41
2016-05-08T09:11:56.606Z,997.46
2016-05-08T09:12:57.047Z,997.38
2016-05-08T09:13:56.611Z,997.33
2016-05-08T09:14:56.614Z,997.24
2016-05-08T09:15:56.633Z,997.25
2016-05-08T09:16:56.635Z,997.25
2016-05-08T09:17:56.653Z,997.24
2016-05-08T09:18:56.671Z,997.25
2016-05-08T09:19:56.675Z,997.2
2016-05-08T09:20:56.928Z,997.23
2016-05-08T09:21:56.930Z,997.22
2016-05-08T09:22:56.745Z,997.22
2016-05-08T09:23:56.732Z,997.21
2016-05-08T09:24:56.735Z,997.23
2016-05-08T09:25:56.753Z,997.2
2016-05-08T09:26:56.771Z,997.2
2016-05-08T09:27:56.774Z,997.2
2016-05-08T09:28:56.793Z,997.16
2016-05-08T09:29:56.811Z,997.2
2016-05-08T09:30:56.813Z,997.13
2016-05-08T09:31:56.816Z,997.17
2016-05-08T09:32:56.834Z,997.16
2016-05-08T09:33:56.854Z,997.25
2016-05-08T09:34:56.856Z,997.25
2016-05-08T09:35:56.873Z,997.27
2016-05-08T09:36:56.892Z,997.26
2016-05-08T09:37:56.895Z,997.31
2016-05-08T09:38:56.913Z,997.24
2016-05-08T09:39:56.931Z,997.28
2016-05-08T09:40:56.950Z,997.27
2016-05-08T09:41:56.984Z,997.3
2016-05-08T09:42:56.970Z,997.34
2016-05-08T09:43:56.973Z,997.39
2016-05-08T09:44:56.975Z,997.36
2016-05-08T09:45:56.994Z,997.28
2016-05-08T09:46:57.014Z,997.35
2016-05-08T09:47:57.031Z,997.35
2016-05-08T09:48:57.034Z,997.34
2016-05-08T09:49:57.036Z,997.28
2016-05-08T09:50:57.055Z,997.29
2016-05-08T09:51:57.058Z,997.34
2016-05-08T09:52:57.075Z,997.3
2016-05-08T09:53:57.297Z,997.34
2016-05-08T09:54:57.096Z,997.35
2016-05-08T09:55:57.116Z,997.3
2016-05-08T09:56:57.118Z,997.3
2016-05-08T09:57:57.136Z,997.27
2016-05-08T09:58:57.155Z,997.27
2016-05-08T09:59:57.391Z,997.29
2016-05-08T10:00:57.191Z,997.29
2016-05-08T10:01:57.412Z,997.26
2016-05-08T10:02:57.212Z,997.26
2016-05-08T10:03:57.215Z,997.25
2016-05-08T10:04:57.218Z,997.22
2016-05-08T10:05:57.235Z,997.25
2016-05-08T10:06:57.254Z,997.21
2016-05-08T10:07:57.460Z,997.31
2016-05-08T10:08:57.275Z,997.44
2016-05-08T10:09:57.293Z,997.35
2016-05-08T10:10:57.498Z,997.45
2016-05-08T10:11:57.314Z,997.41
2016-05-08T10:12:57.318Z,997.37
2016-05-08T10:13:57.335Z,997.42
2016-05-08T10:14:57.354Z,997.34
2016-05-08T10:15:57.403Z,997.25
2016-05-08T10:16:57.375Z,997.17
2016-05-08T10:17:57.612Z,997.25
2016-05-08T10:18:57.411Z,997.33
2016-05-08T10:19:57.430Z,997.44
2016-05-08T10:20:57.433Z,997.45
2016-05-08T10:21:57.450Z,997.33
2016-05-08T10:22:57.469Z,997.28
2016-05-08T10:23:57.498Z,997.21
2016-05-08T10:24:57.501Z,997.18
2016-05-08T10:25:57.738Z,997.15
2016-05-08T10:26:57.522Z,997.21
2016-05-08T10:27:57.524Z,997.21
2016-05-08T10:28:57.543Z,997.18
2016-05-08T10:29:57.546Z,997.24
2016-05-08T10:30:57.564Z,997.25
2016-05-08T10:31:57.582Z,997.28
2016-05-08T10:32:57.600Z,997.19
2016-05-08T10:33:57.635Z,997.1
2016-05-08T10:34:57.637Z,997.15
2016-05-08T10:35:57.640Z,997.13
2016-05-08T10:36:57.642Z,997.2
2016-05-08T10:37:57.660Z,997.18
2016-05-08T10:38:57.679Z,997.15
2016-05-08T10:39:57.681Z,997.22
2016-05-08T10:40:57.700Z,997.29
2016-05-08T10:41:57.749Z,997.3
2016-05-08T10:42:58.002Z,997.44
2016-05-08T10:43:57.739Z,997.49
2016-05-08T10:44:57.757Z,997.44
2016-05-08T10:45:57.776Z,997.32
2016-05-08T10:46:57.779Z,997.37
2016-05-08T10:47:57.797Z,997.43
2016-05-08T10:48:57.815Z,997.43
2016-05-08T10:49:57.850Z,997.45
2016-05-08T10:50:57.868Z,997.46
2016-05-08T10:51:57.870Z,997.42
2016-05-08T10:52:57.873Z,997.52
2016-05-08T10:53:57.891Z,997.45
2016-05-08T10:54:57.894Z,997.49
2016-05-08T10:55:57.912Z,997.37
2016-05-08T10:56:57.915Z,997.39
2016-05-08T10:57:59.480Z,997.4
2016-05-08T10:58:57.952Z,997.35
2016-05-08T10:59:57.970Z,997.27
2016-05-08T11:00:57.972Z,997.28
2016-05-08T11:01:58.007Z,997.27
2016-05-08T11:02:58.024Z,997.26
2016-05-08T11:03:58.105Z,997.29
2016-05-08T11:04:58.060Z,997.23
2016-05-08T11:05:58.063Z,997.32
2016-05-08T11:06:58.099Z,997.31
2016-05-08T11:07:58.085Z,997.37
2016-05-08T11:08:58.103Z,997.34
2016-05-08T11:09:58.137Z,997.24
2016-05-08T11:10:58.140Z,997.21
2016-05-08T11:11:58.143Z,997.24
2016-05-08T11:12:58.161Z,997.28
2016-05-08T11:13:58.179Z,997.23
2016-05-08T11:14:58.198Z,997.21
2016-05-08T11:16:58.219Z,997.13
2016-05-08T11:17:58.237Z,997.18
2016-05-08T11:18:58.256Z,997.15
2016-05-08T11:19:58.273Z,997.19
2016-05-08T11:20:58.323Z,997.23
2016-05-08T11:21:58.294Z,997.14
2016-05-08T11:22:58.313Z,997.19
2016-05-08T11:23:58.331Z,997.25
2016-05-08T11:24:58.350Z,997.25
2016-05-08T11:25:58.383Z,997.34
2016-05-08T11:26:58.605Z,997.41
2016-05-08T11:27:58.545Z,997.26
2016-05-08T11:28:58.407Z,997.11
2016-05-08T11:29:58.410Z,997.09
2016-05-08T11:30:58.474Z,997.09
2016-05-08T11:31:58.759Z,997.01
2016-05-08T11:32:58.466Z,997
2016-05-08T11:33:58.686Z,996.98
2016-05-08T11:34:58.486Z,997.02
2016-05-08T11:35:58.504Z,997.09
2016-05-08T11:36:58.522Z,997.27
2016-05-08T11:37:58.541Z,997.18
2016-05-08T11:38:58.574Z,997.02
2016-05-08T11:39:58.562Z,996.86
2016-05-08T11:40:58.580Z,996.9
2016-05-08T11:41:58.614Z,996.94
2016-05-08T11:42:58.617Z,997
2016-05-08T11:43:58.620Z,997.05
2016-05-08T11:44:58.637Z,997.11
2016-05-08T11:45:58.656Z,997.2
2016-05-08T11:46:58.673Z,997.22
2016-05-08T11:47:58.725Z,997.21
2016-05-08T11:48:58.770Z,997.25
2016-05-08T11:49:58.845Z,997.22
2016-05-08T11:50:58.922Z,997.24
2016-05-08T11:51:59.153Z,997.15
2016-05-08T11:52:59.193Z,997.08
2016-05-08T11:53:59.008Z,996.92
2016-05-08T11:54:59.056Z,996.84
2016-05-08T11:55:59.074Z,996.8
2016-05-08T11:56:59.138Z,996.71
2016-05-08T11:57:59.149Z,996.72
2016-05-08T11:58:59.157Z,996.71
2016-05-08T11:59:59.196Z,996.76
2016-05-08T12:00:59.220Z,996.72
2016-05-08T12:01:59.228Z,996.66
2016-05-08T12:02:59.234Z,996.7
2016-05-08T12:03:59.456Z,996.71
2016-05-08T12:04:59.305Z,996.74
2016-05-08T12:05:59.512Z,996.79
2016-05-08T12:06:59.314Z,996.94
2016-05-08T12:07:59.333Z,996.99
2016-05-08T12:08:59.352Z,996.99
2016-05-08T12:09:59.372Z,997
2016-05-08T12:10:59.375Z,996.99
2016-05-08T12:11:59.426Z,996.88
2016-05-08T12:12:59.412Z,996.78
2016-05-08T12:13:59.414Z,996.8
2016-05-08T12:14:59.465Z,996.92
2016-05-08T12:15:59.451Z,996.93
2016-05-08T12:16:59.673Z,996.83
2016-05-08T12:17:59.488Z,996.74
2016-05-08T12:18:59.507Z,996.68
2016-05-08T12:19:59.510Z,996.67
2016-05-08T12:20:59.747Z,996.74
2016-05-08T12:21:59.562Z,996.83
2016-05-08T12:22:59.564Z,996.85
2016-05-08T12:23:59.583Z,996.73
2016-05-08T12:24:59.600Z,996.76
2016-05-08T12:25:59.619Z,996.69
2016-05-08T12:26:59.622Z,996.72
2016-05-08T12:27:59.875Z,996.78
2016-05-08T12:28:59.674Z,996.8
2016-05-08T12:29:59.677Z,996.84
2016-05-08T12:30:59.696Z,996.84
2016-05-08T12:31:59.713Z,996.89
2016-05-08T12:32:59.716Z,996.94
2016-05-08T12:33:59.749Z,997.01
2016-05-08T12:34:59.769Z,996.98
2016-05-08T12:35:59.772Z,996.99
2016-05-08T12:36:59.774Z,996.98
2016-05-08T12:37:59.793Z,997.02
2016-05-08T12:38:59.810Z,997
2016-05-08T12:39:59.829Z,996.94
2016-05-08T12:40:59.848Z,996.93
2016-05-08T12:42:00.068Z,996.91
2016-05-08T12:42:59.868Z,996.85
2016-05-08T12:43:59.887Z,996.8
2016-05-08T12:44:59.904Z,996.84
2016-05-08T12:46:00.126Z,996.82